createdAt,value
2024-03-05T00:01:01.743Z,46.17
2024-03-05T00:03:29.725Z,46.09
2024-03-05T00:05:57.536Z,45.92
2024-03-05T00:08:24.751Z,45.89
2024-03-05T00:10:51.905Z,45.74
2024-03-05T00:13:20.178Z,45.88
2024-03-05T00:15:47.843Z,46.38
2024-03-05T00:18:15.199Z,45.91
2024-03-05T00:20:42.623Z,46.30
2024-03-05T00:23:09.909Z,45.98
2024-03-05T00:25:37.153Z,46.11
2024-03-05T00:28:04.410Z,45.80
2024-03-05T00:30:31.570Z,46.04
2024-03-05T00:32:59.754Z,46.19
2024-03-05T00:35:26.786Z,45.91
2024-03-05T00:37:53.838Z,46.13
2024-03-05T00:40:20.849Z,46.06
2024-03-05T00:42:48.139Z,46.05
2024-03-05T00:45:18.526Z,46.34
2024-03-05T00:47:45.795Z,46.35
2024-03-05T00:50:15.027Z,46.21
2024-03-05T00:52:42.286Z,46.11
2024-03-05T00:55:10.153Z,46.51
2024-03-05T00:57:37.926Z,46.17
2024-03-05T01:00:06.740Z,46.72
2024-03-05T01:02:34.042Z,46.38
2024-03-05T01:05:01.211Z,46.39
2024-03-05T01:07:28.536Z,46.46
2024-03-05T01:09:56.058Z,46.89
2024-03-05T01:12:23.166Z,46.73
2024-03-05T01:14:50.324Z,46.54
2024-03-05T01:17:17.450Z,46.89
2024-03-05T01:19:44.520Z,46.64
2024-03-05T01:22:11.874Z,46.95
2024-03-05T01:24:39.117Z,47.25
2024-03-05T01:27:06.430Z,46.91
2024-03-05T01:29:33.551Z,47.19
2024-03-05T01:32:03.097Z,46.75
2024-03-05T01:34:30.544Z,47.01
2024-03-05T01:37:00.442Z,47.16
2024-03-05T01:39:29.468Z,47.27
2024-03-05T01:41:57.969Z,47.22
2024-03-05T01:44:26.376Z,47.33
2024-03-05T01:46:57.220Z,47.22
2024-03-05T01:49:26.201Z,47.36
2024-03-05T01:51:56.240Z,47.34
2024-03-05T01:54:25.142Z,47.55
2024-03-05T01:56:56.079Z,47.70
2024-03-05T01:59:24.274Z,47.70
2024-03-05T02:01:53.351Z,47.72
2024-03-05T02:04:22.926Z,47.74
2024-03-05T02:06:54.271Z,47.93
2024-03-05T02:09:23.018Z,48.05
2024-03-05T02:11:56.587Z,48.03
2024-03-05T02:14:30.927Z,48.03
2024-03-05T02:17:01.329Z,48.06
2024-03-05T02:19:49.536Z,47.83
2024-03-05T02:22:16.995Z,48.25
2024-03-05T02:24:44.496Z,48.01
2024-03-05T02:27:17.411Z,48.58
2024-03-05T02:29:48.185Z,48.48
2024-03-05T02:32:15.721Z,48.35
2024-03-05T02:34:42.682Z,48.32
2024-03-05T02:37:12.845Z,48.72
2024-03-05T02:39:40.244Z,48.50
2024-03-05T02:42:07.453Z,48.65
2024-03-05T02:44:34.489Z,48.74
2024-03-05T02:47:01.729Z,48.84
2024-03-05T02:49:29.302Z,48.80
2024-03-05T02:51:56.386Z,48.96
2024-03-05T02:54:23.406Z,48.76
2024-03-05T02:56:50.837Z,48.62
2024-03-05T02:59:18.759Z,48.80
2024-03-05T03:01:48.125Z,48.89
2024-03-05T03:04:16.808Z,48.93
2024-03-05T03:06:44.384Z,49.04
2024-03-05T03:09:11.865Z,49.43
2024-03-05T03:11:42.708Z,49.42
2024-03-05T03:14:10.530Z,49.39
2024-03-05T03:16:37.840Z,49.60
2024-03-05T03:19:05.868Z,49.57
2024-03-05T03:21:33.318Z,49.62
2024-03-05T03:24:00.705Z,49.47
2024-03-05T03:26:28.047Z,49.75
2024-03-05T03:28:56.092Z,49.72
2024-03-05T03:31:24.077Z,49.75
2024-03-05T03:33:51.268Z,49.96
2024-03-05T03:36:25.635Z,50.51
2024-03-05T03:38:53.127Z,49.92
2024-03-05T03:41:20.995Z,50.12
2024-03-05T03:43:48.786Z,50.12
2024-03-05T03:46:16.170Z,50.13
2024-03-05T03:48:43.449Z,49.93
2024-03-05T03:51:11.032Z,50.12
2024-03-05T03:53:38.401Z,50.13
2024-03-05T03:56:05.935Z,50.26
2024-03-05T03:58:34.031Z,50.47
2024-03-05T04:01:01.527Z,50.14
2024-03-05T04:03:31.022Z,50.44
2024-03-05T04:05:58.206Z,50.25
2024-03-05T04:08:25.483Z,50.42
2024-03-05T04:10:52.587Z,50.26
2024-03-05T04:13:19.799Z,50.27
2024-03-05T04:15:46.836Z,50.54
2024-03-05T04:18:14.232Z,50.31
2024-03-05T04:20:42.136Z,50.75
2024-03-05T04:23:11.626Z,50.68
2024-03-05T04:25:41.659Z,50.23
2024-03-05T04:28:13.800Z,50.44
2024-03-05T04:30:43.018Z,50.41
2024-03-05T04:33:12.268Z,50.45
2024-03-05T04:35:39.776Z,50.55
2024-03-05T04:38:06.940Z,50.47
2024-03-05T04:40:35.382Z,50.63
2024-03-05T04:47:46.244Z,50.24
2024-03-05T04:50:16.154Z,50.47
2024-03-05T04:52:44.821Z,50.24
2024-03-05T04:55:15.042Z,50.54
2024-03-05T04:57:42.370Z,50.37
2024-03-05T05:00:21.165Z,50.74
2024-03-05T05:02:50.433Z,50.45
2024-03-05T05:05:18.188Z,50.66
2024-03-05T05:07:46.717Z,50.84
2024-03-05T05:10:14.332Z,50.79
2024-03-05T05:12:41.704Z,50.81
2024-03-05T05:15:09.435Z,51.08
2024-03-05T05:17:36.779Z,51.20
2024-03-05T05:20:09.626Z,51.06
2024-03-05T05:22:40.089Z,51.80
2024-03-05T05:25:07.970Z,51.78
2024-03-05T05:27:38.739Z,52.06
2024-03-05T05:30:12.988Z,51.95
2024-03-05T05:32:41.502Z,51.73
2024-03-05T05:35:09.585Z,51.85
2024-03-05T05:37:38.318Z,52.10
2024-03-05T05:40:07.095Z,52.57
2024-03-05T05:42:34.593Z,52.31
2024-03-05T05:45:01.930Z,52.75
2024-03-05T05:47:30.978Z,52.38
2024-03-05T05:49:59.702Z,53.10
2024-03-05T05:52:27.071Z,53.19
2024-03-05T05:54:55.827Z,53.18
2024-03-05T05:57:22.904Z,53.38
2024-03-05T05:59:50.122Z,53.62
2024-03-05T06:02:20.809Z,53.14
2024-03-05T06:04:48.181Z,53.25
2024-03-05T06:07:15.403Z,53.66
2024-03-05T06:09:42.751Z,53.95
2024-03-05T06:12:09.973Z,53.74
2024-03-05T06:14:37.496Z,54.00
2024-03-05T06:17:04.847Z,54.04
2024-03-05T06:19:32.012Z,54.31
2024-03-05T06:21:59.162Z,53.93
2024-03-05T06:24:26.621Z,54.37
2024-03-05T06:26:53.747Z,54.33
2024-03-05T06:29:20.861Z,54.32
2024-03-05T06:31:49.024Z,54.56
2024-03-05T06:34:16.587Z,54.72
2024-03-05T06:36:47.889Z,54.73
2024-03-05T06:39:30.754Z,54.72
2024-03-05T06:41:59.878Z,54.44
2024-03-05T06:44:37.026Z,54.71
2024-03-05T06:47:06.134Z,54.95
2024-03-05T06:49:40.031Z,54.91
2024-03-05T06:52:25.873Z,54.99
2024-03-05T06:55:11.637Z,55.08
2024-03-05T06:57:38.724Z,54.89
2024-03-05T07:00:16.597Z,55.14
2024-03-05T07:02:43.953Z,55.04
2024-03-05T07:05:11.235Z,55.44
2024-03-05T07:07:38.890Z,55.58
2024-03-05T07:10:15.385Z,55.64
2024-03-05T07:12:46.348Z,55.75
2024-03-05T07:15:16.182Z,55.46
2024-03-05T07:17:46.437Z,55.30
2024-03-05T07:20:19.958Z,55.61
2024-03-05T07:22:48.256Z,55.43
2024-03-05T07:25:18.775Z,55.47
2024-03-05T07:27:48.033Z,55.37
2024-03-05T07:30:19.666Z,55.50
2024-03-05T07:32:50.234Z,55.91
2024-03-05T07:35:19.648Z,55.86
2024-03-05T07:37:48.092Z,55.93
2024-03-05T07:40:21.814Z,56.31
2024-03-05T07:42:53.233Z,56.34
2024-03-05T07:45:27.358Z,56.11
2024-03-05T07:47:54.558Z,55.99
2024-03-05T07:50:21.850Z,56.25
2024-03-05T07:52:49.261Z,56.32
2024-03-05T07:55:28.961Z,57.08
2024-03-05T07:57:58.865Z,56.89
2024-03-05T08:00:26.146Z,56.94
2024-03-05T08:02:56.983Z,56.84
2024-03-05T08:05:24.617Z,56.88
2024-03-05T08:08:00.563Z,57.10
2024-03-05T08:10:27.862Z,56.68
2024-03-05T08:12:56.931Z,56.52
2024-03-05T08:15:28.663Z,57.02
2024-03-05T08:17:57.743Z,56.70
2024-03-05T08:20:28.046Z,57.17
2024-03-05T08:22:56.951Z,56.97
2024-03-05T08:25:25.433Z,56.93
2024-03-05T08:27:56.439Z,56.98
2024-03-05T08:30:27.440Z,57.06
2024-03-05T08:32:55.248Z,57.22
2024-03-05T08:35:23.435Z,57.06
2024-03-05T08:37:51.292Z,57.27
2024-03-05T08:40:22.561Z,57.21
2024-03-05T08:42:51.275Z,56.98
2024-03-05T08:45:26.209Z,57.36
2024-03-05T08:47:55.852Z,57.39
2024-03-05T08:50:25.140Z,57.18
2024-03-05T08:52:52.249Z,57.60
2024-03-05T08:55:19.601Z,57.43
2024-03-05T08:57:47.358Z,57.29
2024-03-05T09:00:32.007Z,57.46
2024-03-05T09:03:09.561Z,57.28
2024-03-05T09:05:37.388Z,57.20
2024-03-05T09:08:06.869Z,57.16
2024-03-05T09:10:35.572Z,56.95
2024-03-05T09:13:03.671Z,57.25
2024-03-05T09:15:31.585Z,57.30
2024-03-05T09:18:00.415Z,57.34
2024-03-05T09:20:27.543Z,57.14
2024-03-05T09:22:57.502Z,57.67
2024-03-05T09:25:24.746Z,57.16
2024-03-05T09:27:52.054Z,57.69
2024-03-05T09:30:20.737Z,57.36
2024-03-05T09:32:48.241Z,56.98
2024-03-05T09:35:17.097Z,57.29
2024-03-05T09:37:49.698Z,57.43
2024-03-05T09:40:22.164Z,57.44
2024-03-05T09:42:49.499Z,56.77
2024-03-05T09:45:19.057Z,57.00
2024-03-05T09:47:49.796Z,56.99
2024-03-05T09:50:18.996Z,56.55
2024-03-05T09:52:48.447Z,56.57
2024-03-05T09:55:19.106Z,56.83
2024-03-05T09:57:50.488Z,56.97
2024-03-05T10:00:22.389Z,56.65
2024-03-05T10:02:53.199Z,56.43
2024-03-05T10:05:21.458Z,56.34
2024-03-05T10:07:50.166Z,56.10
2024-03-05T10:10:25.385Z,55.91
2024-03-05T10:12:52.631Z,55.46
2024-03-05T10:15:23.587Z,55.80
2024-03-05T10:17:54.716Z,55.32
2024-03-05T10:20:28.597Z,55.25
2024-03-05T10:22:59.763Z,55.15
2024-03-05T10:25:31.328Z,55.19
2024-03-05T10:27:58.782Z,54.80
2024-03-05T10:30:34.251Z,54.39
2024-03-05T10:33:09.088Z,54.66
2024-03-05T10:35:39.668Z,54.58
2024-03-05T10:38:14.044Z,54.42
2024-03-05T10:40:46.034Z,53.86
2024-03-05T10:43:19.868Z,53.66
2024-03-05T10:45:48.610Z,53.75
2024-03-05T10:48:19.761Z,53.38
2024-03-05T10:50:50.681Z,53.00
2024-03-05T10:53:19.579Z,53.13
2024-03-05T10:55:52.676Z,52.66
2024-03-05T10:58:21.098Z,52.64
2024-03-05T11:00:51.234Z,52.81
2024-03-05T11:03:40.528Z,52.41
2024-03-05T11:06:10.659Z,52.22
2024-03-05T11:08:38.479Z,52.53
2024-03-05T11:11:11.091Z,52.11
2024-03-05T11:13:40.690Z,52.24
2024-03-05T11:16:09.680Z,52.39
2024-03-05T11:18:38.708Z,52.27
2024-03-05T11:21:10.548Z,52.16
2024-03-05T11:23:51.312Z,52.19
2024-03-05T11:26:20.544Z,52.16
2024-03-05T11:28:54.432Z,51.97
2024-03-05T11:31:22.483Z,52.10
2024-03-05T11:34:10.149Z,52.17
2024-03-05T11:36:37.953Z,52.14
2024-03-05T11:39:16.422Z,51.87
2024-03-05T11:41:45.022Z,52.06
2024-03-05T11:44:14.395Z,52.00
2024-03-05T11:46:46.152Z,51.83
2024-03-05T11:49:14.961Z,51.82
2024-03-05T11:51:44.303Z,51.75
2024-03-05T11:54:13.941Z,52.14
2024-03-05T11:56:43.221Z,52.00
2024-03-05T11:59:11.528Z,52.24
2024-03-05T12:01:41.108Z,52.27
2024-03-05T12:04:09.617Z,52.11
2024-03-05T12:06:40.340Z,51.76
2024-03-05T12:09:20.156Z,51.86
2024-03-05T12:11:59.072Z,51.86
2024-03-05T12:14:26.410Z,51.89
2024-03-05T12:16:53.778Z,51.83
2024-03-05T12:19:23.645Z,51.70
2024-03-05T12:21:50.772Z,51.12
2024-03-05T12:24:18.030Z,50.95
2024-03-05T12:26:48.749Z,50.85
2024-03-05T12:29:34.955Z,50.45
2024-03-05T12:32:07.750Z,50.48
2024-03-05T12:34:36.267Z,50.71
2024-03-05T12:37:09.516Z,50.45
2024-03-05T12:39:37.088Z,50.36
2024-03-05T12:42:08.576Z,49.87
2024-03-05T12:44:36.092Z,50.25
2024-03-05T12:47:15.418Z,49.54
2024-03-05T12:49:45.863Z,49.85
2024-03-05T12:52:18.581Z,49.58
2024-03-05T12:54:46.259Z,49.75
2024-03-05T12:57:28.008Z,48.95
2024-03-05T12:59:57.512Z,49.14
2024-03-05T13:02:24.895Z,49.59
2024-03-05T13:04:53.094Z,49.37
2024-03-05T13:07:22.274Z,49.49
2024-03-05T13:09:49.860Z,49.19
2024-03-05T13:12:18.357Z,48.97
2024-03-05T13:14:45.501Z,49.11
2024-03-05T13:17:12.503Z,49.05
2024-03-05T13:19:39.821Z,48.75
2024-03-05T13:22:09.803Z,48.79
2024-03-05T13:24:39.266Z,48.59
2024-03-05T13:27:06.528Z,48.65
2024-03-05T13:29:34.624Z,48.70
2024-03-05T13:32:01.888Z,48.47
2024-03-05T13:34:29.322Z,48.32
2024-03-05T13:36:56.472Z,48.59
2024-03-05T13:39:25.720Z,48.25
2024-03-05T13:41:54.963Z,48.26
2024-03-05T13:44:25.861Z,47.86
2024-03-05T13:47:04.236Z,47.91
2024-03-05T13:49:47.754Z,48.27
2024-03-05T13:52:15.870Z,47.76
2024-03-05T13:54:45.417Z,47.77
2024-03-05T13:57:12.613Z,47.93
2024-03-05T13:59:39.659Z,47.88
2024-03-05T14:02:09.835Z,47.67
2024-03-05T14:04:37.149Z,47.76
2024-03-05T14:07:04.626Z,47.84
2024-03-05T14:09:31.772Z,47.81
2024-03-05T14:11:58.891Z,47.96
2024-03-05T14:14:26.320Z,47.97
2024-03-05T14:16:53.488Z,48.19
2024-03-05T14:19:24.227Z,48.17
2024-03-05T14:21:53.729Z,48.15
2024-03-05T14:24:20.851Z,47.73
2024-03-05T14:26:50.902Z,47.86
2024-03-05T14:29:18.166Z,47.86
2024-03-05T14:31:45.225Z,48.06
2024-03-05T14:34:14.166Z,47.89
2024-03-05T14:36:41.347Z,47.89
2024-03-05T14:39:11.449Z,47.82
2024-03-05T14:41:38.594Z,48.06
2024-03-05T14:44:06.110Z,48.28
2024-03-05T14:46:34.196Z,47.98
2024-03-05T14:49:01.526Z,48.22
2024-03-05T14:51:30.206Z,48.31
2024-03-05T14:53:58.225Z,48.09
2024-03-05T14:56:31.231Z,48.36
2024-03-05T14:59:01.245Z,48.33
2024-03-05T15:01:28.415Z,48.21
2024-03-05T15:03:55.893Z,47.98
2024-03-05T15:06:23.265Z,48.02
2024-03-05T15:08:53.318Z,48.11
2024-03-05T15:11:20.981Z,48.39
2024-03-05T15:13:48.093Z,48.28
2024-03-05T15:16:15.304Z,48.31
2024-03-05T15:18:42.589Z,48.37
2024-03-05T15:21:15.615Z,48.41
2024-03-05T15:23:43.727Z,48.20
2024-03-05T15:26:11.845Z,48.44
2024-03-05T15:28:41.506Z,48.60
2024-03-05T15:31:10.689Z,48.58
2024-03-05T15:33:41.465Z,48.80
2024-03-05T15:36:09.680Z,48.58
2024-03-05T15:38:36.862Z,49.01
2024-03-05T15:41:07.881Z,48.92
2024-03-05T15:43:35.351Z,48.77
2024-03-05T15:46:02.899Z,48.76
2024-03-05T15:48:31.825Z,48.78
2024-03-05T15:50:59.957Z,48.71
2024-03-05T15:53:27.789Z,49.01
2024-03-05T15:56:13.442Z,49.10
2024-03-05T15:58:43.960Z,48.77
2024-03-05T16:01:12.595Z,49.10
2024-03-05T16:03:56.937Z,48.95
2024-03-05T16:06:30.156Z,49.01
2024-03-05T16:08:57.371Z,49.04
2024-03-05T16:11:26.803Z,49.00
2024-03-05T16:13:55.124Z,49.23
2024-03-05T16:16:24.837Z,49.19
2024-03-05T16:18:52.259Z,48.87
2024-03-05T16:21:19.930Z,49.25
2024-03-05T16:23:47.311Z,48.89
2024-03-05T16:26:14.450Z,49.00
2024-03-05T16:28:41.623Z,49.12
2024-03-05T16:31:13.126Z,49.10
2024-03-05T16:33:44.676Z,48.98
2024-03-05T16:36:12.086Z,49.31
2024-03-05T16:38:39.143Z,49.24
2024-03-05T16:41:06.329Z,49.14
2024-03-05T16:43:33.965Z,49.30
2024-03-05T16:46:01.337Z,49.58
2024-03-05T16:48:28.664Z,49.60
2024-03-05T16:50:55.889Z,49.58
2024-03-05T16:53:23.389Z,49.72
2024-03-05T16:55:50.626Z,49.56
2024-03-05T16:58:19.634Z,49.59
2024-03-05T17:00:56.151Z,49.61
2024-03-05T17:03:25.813Z,49.70
2024-03-05T17:05:54.206Z,49.43
2024-03-05T17:08:22.637Z,49.77
2024-03-05T17:10:52.402Z,49.95
2024-03-05T17:13:20.722Z,49.92
2024-03-05T17:16:00.709Z,49.83
2024-03-05T17:18:30.775Z,50.11
2024-03-05T17:20:59.323Z,50.01
2024-03-05T17:23:27.900Z,49.95
2024-03-05T17:25:58.786Z,50.06
2024-03-05T17:28:30.426Z,50.06
2024-03-05T17:31:00.517Z,49.99
2024-03-05T17:33:32.003Z,50.24
2024-03-05T17:35:59.424Z,50.09
2024-03-05T17:38:30.480Z,50.25
2024-03-05T17:41:00.922Z,49.93
2024-03-05T17:43:28.085Z,50.19
2024-03-05T17:45:55.469Z,50.17
2024-03-05T17:48:23.711Z,50.20
2024-03-05T17:50:53.476Z,50.22
2024-03-05T17:53:21.796Z,50.21
2024-03-05T17:55:52.468Z,50.14
2024-03-05T17:58:22.974Z,50.03
2024-03-05T18:00:50.219Z,50.60
2024-03-05T18:03:22.545Z,50.08
2024-03-05T18:05:49.890Z,50.21
2024-03-05T18:08:17.272Z,50.20
2024-03-05T18:10:47.501Z,50.37
2024-03-05T18:13:18.586Z,50.14
2024-03-05T18:15:47.267Z,50.37
2024-03-05T18:18:19.335Z,50.32
2024-03-05T18:20:47.573Z,50.40
2024-03-05T18:23:14.889Z,50.20
2024-03-05T18:25:43.309Z,50.44
2024-03-05T18:28:11.015Z,50.56
2024-03-05T18:30:43.417Z,50.35
2024-03-05T18:33:12.825Z,50.48
2024-03-05T18:35:41.587Z,50.24
2024-03-05T18:40:41.416Z,50.52
2024-03-05T18:43:11.140Z,50.46
2024-03-05T18:45:38.864Z,50.48
2024-03-05T18:48:10.106Z,50.13
2024-03-05T18:50:38.794Z,50.58
2024-03-05T18:53:07.655Z,50.69
2024-03-05T18:55:37.576Z,50.41
2024-03-05T18:58:09.653Z,50.63
2024-03-05T19:00:41.660Z,50.75
2024-03-05T19:03:09.373Z,50.68
2024-03-05T19:05:37.808Z,50.68
2024-03-05T19:08:07.816Z,50.78
2024-03-05T19:10:37.585Z,51.01
2024-03-05T19:13:10.147Z,50.89
2024-03-05T19:15:41.077Z,50.97
2024-03-05T19:18:13.640Z,51.08
2024-03-05T19:20:40.801Z,51.03
2024-03-05T19:23:11.831Z,51.10
2024-03-05T19:25:39.981Z,51.19
2024-03-05T19:28:08.501Z,51.00
2024-03-05T19:30:38.990Z,51.09
2024-03-05T19:33:06.614Z,51.23
2024-03-05T19:35:47.741Z,51.36
2024-03-05T19:38:16.807Z,51.32
2024-03-05T19:40:46.554Z,51.44
2024-03-05T19:48:55.948Z,51.69
2024-03-05T19:51:35.178Z,51.46
2024-03-05T19:57:20.232Z,51.39
2024-03-05T19:59:47.424Z,51.55
2024-03-05T20:02:14.639Z,51.93
2024-03-05T20:04:43.056Z,51.65
2024-03-05T20:07:11.813Z,51.55
2024-03-05T20:09:39.518Z,51.59
2024-03-05T20:12:07.042Z,51.78
2024-03-05T20:14:37.202Z,51.86
2024-03-05T20:17:08.803Z,51.94
2024-03-05T20:19:39.253Z,51.84
2024-03-05T20:22:07.166Z,51.85
2024-03-05T20:24:37.036Z,52.05
2024-03-05T20:27:04.262Z,51.89
2024-03-05T20:29:31.431Z,51.91
2024-03-05T20:31:58.796Z,52.03
2024-03-05T20:34:27.795Z,51.76
2024-03-05T20:36:55.714Z,52.02
2024-03-05T20:39:22.815Z,51.82
2024-03-05T20:41:49.961Z,52.46
2024-03-05T20:44:18.146Z,51.91
2024-03-05T20:46:45.216Z,52.21
2024-03-05T20:49:14.665Z,51.95
2024-03-05T20:51:41.896Z,52.05
2024-03-05T20:54:09.086Z,52.15
2024-03-05T20:56:36.157Z,52.12
2024-03-05T20:59:03.474Z,52.17
2024-03-05T21:01:33.607Z,52.51
2024-03-05T21:04:01.672Z,52.34
2024-03-05T21:06:28.889Z,52.14
2024-03-05T21:08:59.560Z,51.97
2024-03-05T21:11:26.917Z,52.44
2024-03-05T21:13:55.163Z,52.10
2024-03-05T21:16:22.307Z,52.33
2024-03-05T21:18:51.299Z,51.85
2024-03-05T21:21:18.562Z,52.04
2024-03-05T21:23:45.758Z,52.23
2024-03-05T21:26:27.607Z,52.43
2024-03-05T21:29:01.812Z,52.57
2024-03-05T21:31:30.269Z,52.49
2024-03-05T21:33:57.516Z,52.55
2024-03-05T21:36:27.504Z,52.53
2024-03-05T21:38:54.982Z,52.56
2024-03-05T21:41:22.024Z,52.64
2024-03-05T21:43:50.311Z,52.42
2024-03-05T21:46:17.522Z,52.16
2024-03-05T21:48:45.228Z,52.41
2024-03-05T21:51:15.919Z,52.15
2024-03-05T21:53:44.142Z,52.44
2024-03-05T21:56:11.501Z,52.19
2024-03-05T21:58:43.383Z,52.17
2024-03-05T22:01:11.042Z,51.93
2024-03-05T22:03:38.214Z,52.01
2024-03-05T22:06:15.023Z,52.19
2024-03-05T22:08:47.539Z,52.03
2024-03-05T22:11:15.533Z,51.96
2024-03-05T22:13:42.804Z,52.12
2024-03-05T22:16:09.880Z,52.17
2024-03-05T22:18:37.776Z,52.03
2024-03-05T22:21:05.229Z,51.87
2024-03-05T22:23:33.088Z,51.87
2024-03-05T22:26:00.208Z,52.20
2024-03-05T22:28:27.518Z,51.92
2024-03-05T22:30:55.649Z,52.34
2024-03-05T22:33:23.625Z,52.10
2024-03-05T22:35:50.828Z,52.17
2024-03-05T22:38:18.066Z,52.20
2024-03-05T22:40:45.201Z,52.80
2024-03-05T22:43:13.337Z,52.35
2024-03-05T22:45:40.369Z,52.21
2024-03-05T22:48:07.682Z,52.32
2024-03-05T22:50:34.758Z,52.04
2024-03-05T22:53:02.173Z,52.83
2024-03-05T22:55:29.376Z,52.44
2024-03-05T22:57:56.423Z,52.33
2024-03-05T23:00:24.477Z,52.83
2024-03-05T23:02:52.894Z,52.59
2024-03-05T23:05:21.218Z,52.49
2024-03-05T23:07:48.925Z,52.54
2024-03-05T23:10:17.702Z,52.95
2024-03-05T23:12:46.358Z,52.95
2024-03-05T23:15:16.513Z,52.88
2024-03-05T23:17:44.710Z,52.96
2024-03-05T23:20:13.024Z,53.02
2024-03-05T23:22:40.865Z,52.79
2024-03-05T23:25:08.959Z,53.08
2024-03-05T23:27:48.500Z,53.29
2024-03-05T23:30:19.889Z,53.05
2024-03-05T23:32:47.832Z,52.91
2024-03-05T23:35:15.875Z,52.98
2024-03-05T23:37:43.265Z,53.23
2024-03-05T23:40:11.144Z,53.38
2024-03-05T23:42:39.566Z,53.29
2024-03-05T23:45:08.069Z,52.95
2024-03-05T23:47:35.596Z,53.23
2024-03-05T23:50:03.462Z,53.63
2024-03-05T23:52:33.467Z,53.48
2024-03-05T23:55:02.693Z,53.84
2024-03-05T23:57:31.275Z,53.83
2024-03-05T23:59:58.401Z,53.80
